Time;durP1;ratioP1;P1;durP2;ratioP2;P2;SDS_P1;SDS_P2;PMS_P1;PMS_P2;Temp;Humidity;BMP_temperature;BMP_pressure;BME280_temperature;BME280_humidity;BME280_pressure;Samples;Min_cycle;Max_cycle;Signal;HPM_P1;HPM_P2
2023/06/04 16:53:29;;;;;;;3.10;1.90;;;25.50;40.80;;;;;;5088110;27;20565;-70
2023/06/04 16:55:54;;;;;;;8.53;2.50;;;24.60;43.50;;;;;;5082079;28;20418;-71
2023/06/04 16:58:20;;;;;;;5.53;1.97;;;24.20;41.50;;;;;;5083197;28;20434;-71
2023/06/04 17:00:47;;;;;;;4.10;2.13;;;23.80;42.30;;;;;;5078843;28;20186;-69
2023/06/04 17:03:12;;;;;;;3.70;1.87;;;23.60;44.10;;;;;;5085933;28;20222;-71
2023/06/04 17:05:38;;;;;;;2.87;1.77;;;23.40;43.40;;;;;;5082667;28;20415;-72
2023/06/04 17:08:03;;;;;;;4.90;2.43;;;23.40;42.70;;;;;;5086287;28;20199;-71
2023/06/04 17:10:32;;;;;;;3.07;1.70;;;23.30;42.40;;;;;;5087825;28;20301;-71
2023/06/04 17:13:00;;;;;;;4.70;1.50;;;23.30;43.70;;;;;;5083209;28;20194;-72
2023/06/04 17:15:28;;;;;;;2.97;1.40;;;23.30;43.60;;;;;;5085370;28;20993;-72
2023/06/04 17:17:59;;;;;;;3.10;1.57;;;23.30;43.60;;;;;;5081867;28;20412;-71
2023/06/04 17:20:27;;;;;;;2.90;1.40;;;23.20;43.70;;;;;;5080801;28;20405;-72
2023/06/04 17:22:53;;;;;;;3.40;1.30;;;23.30;43.10;;;;;;5087763;28;20465;-73
2023/06/04 17:25:18;;;;;;;3.80;1.60;;;23.20;44.10;;;;;;5087407;28;20476;-71
2023/06/04 17:27:45;;;;;;;3.10;1.37;;;23.10;45.50;;;;;;5087860;28;20187;-71
2023/06/04 17:30:11;;;;;;;3.43;1.80;;;23.00;45.50;;;;;;5087324;28;20644;-71
2023/06/04 17:32:37;;;;;;;2.60;1.63;;;22.90;47.60;;;;;;5087233;28;20457;-70
2023/06/04 17:35:02;;;;;;;2.90;1.43;;;22.90;47.10;;;;;;5074963;28;20280;-71
2023/06/04 17:37:28;;;;;;;1.90;0.93;;;22.70;46.60;;;;;;5088474;28;20180;-72
2023/06/04 17:39:53;;;;;;;3.90;1.50;;;22.70;45.70;;;;;;5088311;28;20219;-71
2023/06/04 17:42:19;;;;;;;5.63;1.37;;;22.60;46.20;;;;;;5087984;28;20253;-71
2023/06/04 17:44:45;;;;;;;3.33;1.80;;;22.70;46.30;;;;;;5082017;28;20181;-72
2023/06/04 17:47:10;;;;;;;3.60;1.83;;;22.50;46.90;;;;;;5076992;28;20307;-72
2023/06/04 17:49:36;;;;;;;4.43;1.40;;;22.40;46.80;;;;;;5087423;28;20389;-71
2023/06/04 17:52:02;;;;;;;3.00;1.80;;;22.40;46.00;;;;;;5085931;28;20203;-72
2023/06/04 17:54:27;;;;;;;3.77;1.70;;;22.30;47.30;;;;;;5086948;28;20755;-71
2023/06/04 17:56:53;;;;;;;2.37;1.30;;;22.20;47.30;;;;;;5086970;28;20180;-72
2023/06/04 17:59:18;;;;;;;4.70;1.60;;;22.20;47.40;;;;;;5086982;28;20263;-72
2023/06/04 18:01:44;;;;;;;2.60;1.50;;;22.10;46.90;;;;;;5086356;28;20172;-72
2023/06/04 18:04:10;;;;;;;3.00;1.40;;;22.10;47.80;;;;;;5077151;28;20198;-72
2023/06/04 18:06:36;;;;;;;4.70;1.70;;;22.00;48.00;;;;;;5073460;28;20181;-72
2023/06/04 18:09:01;;;;;;;4.00;1.70;;;21.90;49.30;;;;;;5070058;28;20185;-71
2023/06/04 18:11:27;;;;;;;1.77;0.93;;;21.90;46.80;;;;;;5058921;28;20196;-71
2023/06/04 18:13:53;;;;;;;2.60;1.30;;;21.80;48.40;;;;;;5068711;28;20168;-71
2023/06/04 18:16:18;;;;;;;4.60;1.20;;;21.80;48.30;;;;;;5064097;28;20182;-70
2023/06/04 18:18:44;;;;;;;3.10;1.77;;;21.70;49.40;;;;;;5070127;28;20177;-71
2023/06/04 18:21:11;;;;;;;2.50;1.27;;;21.60;49.80;;;;;;5073220;28;20219;-71
2023/06/04 18:23:37;;;;;;;3.77;1.33;;;21.60;49.00;;;;;;5072507;28;20270;-71
2023/06/04 18:26:03;;;;;;;2.40;1.17;;;21.50;51.00;;;;;;5072460;28;20493;-71
2023/06/04 18:28:28;;;;;;;2.40;1.23;;;21.40;51.20;;;;;;5071059;28;20177;-71
2023/06/04 18:30:54;;;;;;;3.60;1.40;;;21.30;50.60;;;;;;5068323;28;20415;-71
2023/06/04 18:33:24;;;;;;;2.73;1.73;;;21.20;50.90;;;;;;5072306;28;20205;-70
2023/06/04 18:35:50;;;;;;;2.30;1.13;;;21.20;52.10;;;;;;5073091;28;20415;-70
2023/06/04 18:38:15;;;;;;;2.93;1.50;;;21.00;52.00;;;;;;5072509;28;20792;-70
2023/06/04 18:40:41;;;;;;;3.80;1.40;;;21.00;52.40;;;;;;5067446;28;20230;-70
2023/06/04 18:43:06;;;;;;;4.13;1.70;;;20.90;52.20;;;;;;5065644;28;20174;-71
2023/06/04 18:45:32;;;;;;;2.20;1.10;;;20.90;50.70;;;;;;5070469;28;20607;-71
2023/06/04 18:47:58;;;;;;;5.47;1.70;;;20.80;49.40;;;;;;5072039;28;20196;-71
2023/06/04 18:50:23;;;;;;;2.80;1.30;;;20.90;49.30;;;;;;5070558;28;20199;-71
2023/06/04 18:52:49;;;;;;;3.20;1.53;;;20.80;49.90;;;;;;5064450;28;20247;-71
2023/06/04 18:55:15;;;;;;;3.63;1.60;;;20.80;50.80;;;;;;5064057;28;20223;-71
2023/06/04 18:57:41;;;;;;;3.40;1.40;;;20.70;50.50;;;;;;5072418;28;20920;-70
2023/06/04 19:00:08;;;;;;;9.57;2.13;;;20.60;51.50;;;;;;5072531;28;20427;-71
2023/06/04 19:02:38;;;;;;;6.60;1.70;;;20.50;51.60;;;;;;5064551;28;20195;-70
2023/06/04 19:05:04;;;;;;;2.60;1.30;;;20.40;51.30;;;;;;5066129;28;20432;-71
2023/06/04 19:07:30;;;;;;;3.50;1.20;;;20.30;51.40;;;;;;5067196;28;20937;-70
2023/06/04 19:09:57;;;;;;;2.50;1.30;;;20.20;53.10;;;;;;5067422;28;20926;-71
2023/06/04 19:12:25;;;;;;;4.87;1.43;;;20.00;52.80;;;;;;5072311;28;20466;-71
2023/06/04 19:14:51;;;;;;;3.47;1.70;;;19.90;53.10;;;;;;5071662;28;20416;-71
2023/06/04 19:17:21;;;;;;;8.80;2.80;;;19.70;53.50;;;;;;5072711;28;20892;-71
2023/06/04 19:19:48;;;;;;;4.17;1.50;;;19.60;54.90;;;;;;5072590;28;20422;-71
2023/06/04 19:22:14;;;;;;;12.93;5.70;;;19.40;55.10;;;;;;5072206;28;20411;-70
2023/06/04 19:24:40;;;;;;;21.23;6.20;;;19.20;56.20;;;;;;5071984;28;20502;-68
2023/06/04 19:27:06;;;;;;;9.67;3.33;;;19.00;56.60;;;;;;5072572;28;20507;-74
2023/06/04 19:29:32;;;;;;;4.07;1.80;;;18.80;57.40;;;;;;5070527;28;20185;-72
2023/06/04 19:31:57;;;;;;;12.13;6.00;;;18.60;57.10;;;;;;5069115;28;20623;-72
2023/06/04 19:34:23;;;;;;;21.00;7.50;;;18.50;57.00;;;;;;5068832;28;20173;-72
2023/06/04 19:36:49;;;;;;;8.53;3.13;;;18.40;57.70;;;;;;5070930;28;20204;-72
2023/06/04 19:39:14;;;;;;;6.93;2.60;;;18.30;57.70;;;;;;5067875;28;20181;-71
2023/06/04 19:41:40;;;;;;;22.20;10.10;;;18.20;57.60;;;;;;5067013;28;20188;-71
2023/06/04 19:44:06;;;;;;;46.10;16.40;;;18.10;58.40;;;;;;5065319;28;20181;-72
2023/06/04 19:46:31;;;;;;;69.37;29.27;;;18.00;58.30;;;;;;5066024;28;20647;-72
2023/06/04 19:48:58;;;;;;;66.27;23.20;;;17.90;58.20;;;;;;5069619;28;20172;-71
2023/06/04 19:51:27;;;;;;;75.03;27.40;;;17.80;59.60;;;;;;5071074;28;20216;-71
2023/06/04 19:53:53;;;;;;;17.03;6.70;;;17.70;61.00;;;;;;5066462;28;20788;-71
2023/06/04 19:56:19;;;;;;;7.43;3.80;;;17.60;62.20;;;;;;5067571;28;20655;-71
2023/06/04 19:58:46;;;;;;;22.23;7.37;;;17.50;63.60;;;;;;5071225;28;20950;-71
2023/06/04 20:01:11;;;;;;;48.93;14.40;;;17.40;63.60;;;;;;5071292;28;20575;-71
2023/06/04 20:03:37;;;;;;;32.33;10.70;;;17.20;65.00;;;;;;5063269;28;20427;-71
2023/06/04 20:06:04;;;;;;;26.37;9.20;;;17.10;66.10;;;;;;5071099;28;20180;-72
2023/06/04 20:08:30;;;;;;;20.37;6.90;;;17.00;66.60;;;;;;5070416;28;20173;-72
2023/06/04 20:10:56;;;;;;;36.97;10.90;;;16.90;67.60;;;;;;5070161;28;20787;-71
2023/06/04 20:13:21;;;;;;;21.40;8.90;;;16.80;68.40;;;;;;5069877;28;20257;-71
2023/06/04 20:15:47;;;;;;;7.73;2.47;;;16.60;68.30;;;;;;5069825;28;20208;-69
2023/06/04 20:18:13;;;;;;;37.50;12.20;;;16.50;68.30;;;;;;5070864;28;20185;-67
2023/06/04 20:20:38;;;;;;;16.20;5.10;;;16.40;69.50;;;;;;5070215;28;20180;-72
2023/06/04 20:23:04;;;;;;;4.20;1.63;;;16.30;70.00;;;;;;5070561;28;20491;-72
2023/06/04 20:25:30;;;;;;;18.00;4.43;;;16.20;70.90;;;;;;5070164;28;20256;-72
2023/06/04 20:27:56;;;;;;;22.37;4.97;;;16.10;71.50;;;;;;5070872;28;20185;-72
2023/06/04 20:30:21;;;;;;;27.07;5.50;;;16.10;71.50;;;;;;5063510;28;20447;-72
2023/06/04 20:32:48;;;;;;;23.67;5.23;;;16.00;71.50;;;;;;5069647;28;20256;-73
2023/06/04 20:35:14;;;;;;;12.07;4.23;;;15.90;71.10;;;;;;5070794;28;20244;-72
2023/06/04 20:37:40;;;;;;;8.40;2.77;;;15.90;71.80;;;;;;5070903;28;20953;-72
2023/06/04 20:40:06;;;;;;;4.90;2.10;;;15.80;71.90;;;;;;5070124;28;20194;-72
2023/06/04 20:42:32;;;;;;;23.77;8.30;;;15.80;71.80;;;;;;5070243;28;20188;-72
2023/06/04 20:44:57;;;;;;;14.60;4.70;;;15.60;72.40;;;;;;5068799;28;20435;-72
2023/06/04 20:47:23;;;;;;;11.87;4.77;;;15.60;72.30;;;;;;5060112;28;20173;-72
2023/06/04 20:49:49;;;;;;;6.87;3.40;;;15.50;72.60;;;;;;5063942;28;20291;-72
2023/06/04 20:52:15;;;;;;;8.83;3.30;;;15.50;72.50;;;;;;5065882;28;20235;-72
2023/06/04 20:54:40;;;;;;;23.73;6.87;;;15.40;73.10;;;;;;5067005;28;20519;-72
2023/06/04 20:57:06;;;;;;;8.87;3.73;;;15.40;72.70;;;;;;5069645;28;20173;-72
2023/06/04 20:59:32;;;;;;;5.10;1.83;;;15.30;73.00;;;;;;5070203;28;20192;-72
2023/06/04 21:01:58;;;;;;;5.50;2.40;;;15.30;73.40;;;;;;5069620;28;20334;-72
2023/06/04 21:04:24;;;;;;;6.37;3.70;;;15.20;73.50;;;;;;5070020;28;20181;-72
2023/06/04 21:06:49;;;;;;;14.10;5.00;;;15.10;73.70;;;;;;5069122;28;20522;-72
2023/06/04 21:09:15;;;;;;;9.30;2.83;;;15.10;74.50;;;;;;5069701;28;20185;-72
2023/06/04 21:11:41;;;;;;;3.30;2.13;;;15.00;74.50;;;;;;5069772;28;20208;-72
2023/06/04 21:14:06;;;;;;;13.63;2.40;;;15.00;74.40;;;;;;5069911;28;20189;-72
2023/06/04 21:16:32;;;;;;;6.73;2.50;;;14.80;74.90;;;;;;5070464;28;20185;-71
2023/06/04 21:18:58;;;;;;;3.87;1.73;;;14.80;74.90;;;;;;5069610;28;20185;-72
2023/06/04 21:21:23;;;;;;;3.53;1.93;;;14.70;75.50;;;;;;5069074;28;20173;-72
2023/06/04 21:23:49;;;;;;;3.80;2.17;;;14.60;75.80;;;;;;5066078;28;20537;-72
2023/06/04 21:26:14;;;;;;;4.17;1.73;;;14.60;76.10;;;;;;5068690;28;20182;-72
2023/06/04 21:28:40;;;;;;;4.10;2.00;;;14.50;76.20;;;;;;5067187;28;20276;-72
2023/06/04 21:31:06;;;;;;;6.33;1.77;;;14.50;76.30;;;;;;5066671;28;20174;-72
2023/06/04 21:33:31;;;;;;;3.60;2.17;;;14.40;76.80;;;;;;5065012;28;20205;-72
2023/06/04 21:35:57;;;;;;;7.70;2.00;;;14.40;77.00;;;;;;5060079;28;20531;-72
2023/06/04 21:38:22;;;;;;;2.63;1.27;;;14.30;76.60;;;;;;5070906;28;20268;-72
2023/06/04 21:40:48;;;;;;;3.60;1.40;;;14.30;76.60;;;;;;5072537;28;20274;-72
2023/06/04 21:43:14;;;;;;;3.73;2.23;;;14.30;76.60;;;;;;5073226;28;20196;-72
2023/06/04 21:45:39;;;;;;;5.73;2.70;;;14.20;76.40;;;;;;5073338;28;20189;-71
2023/06/04 21:48:05;;;;;;;4.67;1.47;;;14.20;76.50;;;;;;5073358;28;20185;-72
2023/06/04 21:50:30;;;;;;;4.67;1.40;;;14.10;76.40;;;;;;5073530;28;20642;-72
2023/06/04 21:52:56;;;;;;;2.10;1.10;;;14.10;76.20;;;;;;5073036;28;20221;-72
2023/06/04 21:55:23;;;;;;;2.97;1.47;;;14.00;76.30;;;;;;5073146;28;20199;-72
2023/06/04 21:57:49;;;;;;;2.83;1.30;;;13.90;76.00;;;;;;5073465;28;20185;-72
2023/06/04 22:00:15;;;;;;;4.93;1.77;;;14.00;76.20;;;;;;5073163;28;20538;-71
2023/06/04 22:02:41;;;;;;;4.10;1.80;;;13.90;76.50;;;;;;5072584;28;20246;-72
2023/06/04 22:05:07;;;;;;;2.70;1.30;;;13.90;76.50;;;;;;5073638;28;20427;-72
2023/06/04 22:07:33;;;;;;;3.90;1.80;;;13.90;76.50;;;;;;5073433;28;20671;-72
2023/06/04 22:09:59;;;;;;;5.43;2.07;;;13.80;76.70;;;;;;5073006;28;20451;-72
2023/06/04 22:12:26;;;;;;;3.00;1.40;;;13.70;76.70;;;;;;5072476;28;20205;-72
2023/06/04 22:14:52;;;;;;;3.07;1.00;;;13.70;76.70;;;;;;5062445;28;20240;-72
2023/06/04 22:17:17;;;;;;;4.97;1.77;;;13.70;77.30;;;;;;5065714;28;20940;-71
2023/06/04 22:19:43;;;;;;;5.33;2.00;;;13.60;77.50;;;;;;5066607;28;20546;-72
2023/06/04 22:22:09;;;;;;;3.57;1.33;;;13.60;77.70;;;;;;5071826;28;20177;-72
2023/06/04 22:24:34;;;;;;;2.77;1.40;;;13.60;77.70;;;;;;5071031;28;20272;-72
2023/06/04 22:27:00;;;;;;;2.60;1.50;;;13.50;77.30;;;;;;5072660;28;20205;-72
2023/06/04 22:29:25;;;;;;;2.80;1.10;;;13.50;77.60;;;;;;5068425;28;20200;-72
2023/06/04 22:31:51;;;;;;;5.37;2.20;;;13.50;76.80;;;;;;5066147;28;20243;-72
2023/06/04 22:34:17;;;;;;;2.20;1.20;;;13.40;78.00;;;;;;5061724;28;20185;-72
2023/06/04 22:36:44;;;;;;;2.70;1.00;;;13.40;78.60;;;;;;5067238;28;20178;-72
2023/06/04 22:39:10;;;;;;;2.80;1.23;;;13.30;78.60;;;;;;5060369;28;20215;-72
2023/06/04 22:41:36;;;;;;;4.70;1.43;;;13.30;78.40;;;;;;5065603;28;20477;-72
2023/06/04 22:44:02;;;;;;;3.57;1.40;;;13.30;78.70;;;;;;5060127;28;20446;-72
2023/06/04 22:46:27;;;;;;;3.13;1.07;;;13.20;79.80;;;;;;5057086;28;20214;-72
2023/06/04 22:48:53;;;;;;;4.37;1.13;;;13.20;79.30;;;;;;5064283;28;20870;-72
2023/06/04 22:51:20;;;;;;;4.63;1.77;;;13.40;79.40;;;;;;5067048;28;21429;-72
2023/06/04 22:53:46;;;;;;;4.20;1.43;;;13.10;79.70;;;;;;5062076;28;20261;-72
2023/06/04 22:56:14;;;;;;;2.73;1.60;;;13.00;79.60;;;;;;5055488;28;20419;-72
2023/06/04 22:58:40;;;;;;;2.37;1.00;;;13.00;79.70;;;;;;5062598;28;20424;-72
2023/06/04 23:01:05;;;;;;;2.50;1.10;;;13.20;79.50;;;;;;5052259;28;20450;-72
2023/06/04 23:03:32;;;;;;;2.13;1.20;;;13.00;79.80;;;;;;5061379;28;20181;-72
2023/06/04 23:05:57;;;;;;;3.50;1.30;;;13.70;81.30;;;;;;5055521;28;20189;-72
2023/06/04 23:08:23;;;;;;;2.47;1.17;;;12.80;81.10;;;;;;5052093;28;20432;-72
2023/06/04 23:10:49;;;;;;;2.20;1.37;;;12.80;80.60;;;;;;5051845;28;20553;-72
2023/06/04 23:13:17;;;;;;;2.43;1.30;;;12.70;80.10;;;;;;5050994;28;20205;-72
2023/06/04 23:15:43;;;;;;;4.87;1.73;;;13.20;81.80;;;;;;5051795;28;20174;-72
2023/06/04 23:18:08;;;;;;;2.83;1.40;;;12.60;81.60;;;;;;5052293;28;20416;-72
2023/06/04 23:20:34;;;;;;;3.97;1.40;;;12.60;81.50;;;;;;5071832;28;20256;-72
2023/06/04 23:23:00;;;;;;;3.90;1.47;;;12.50;80.80;;;;;;5064992;28;20236;-71
2023/06/04 23:25:25;;;;;;;2.43;1.30;;;12.50;81.00;;;;;;5071803;28;20628;-71
2023/06/04 23:27:51;;;;;;;2.83;1.40;;;12.50;81.10;;;;;;5071977;28;20311;-71
2023/06/04 23:30:18;;;;;;;3.93;1.63;;;12.90;80.80;;;;;;5063773;28;20826;-72
2023/06/04 23:32:47;;;;;;;2.87;1.20;;;12.50;80.90;;;;;;5060991;28;20225;-72
2023/06/04 23:35:13;;;;;;;1.90;0.80;;;12.40;80.80;;;;;;5055911;28;20469;-72
2023/06/04 23:37:38;;;;;;;2.70;1.03;;;12.40;80.30;;;;;;5061649;28;21152;-72
2023/06/04 23:40:05;;;;;;;4.60;1.30;;;12.80;81.60;;;;;;5051956;28;20903;-72
2023/06/04 23:42:31;;;;;;;3.47;1.60;;;12.30;81.40;;;;;;5051512;28;20216;-71
2023/06/04 23:44:57;;;;;;;19.33;1.70;;;12.80;82.40;;;;;;5054964;28;20454;-72
2023/06/04 23:47:23;;;;;;;2.60;1.50;;;12.30;82.60;;;;;;5063699;28;20192;-71
2023/06/04 23:49:49;;;;;;;3.10;1.63;;;12.30;82.70;;;;;;5053653;28;20182;-72
2023/06/04 23:52:16;;;;;;;2.53;0.80;;;12.20;83.50;;;;;;5051002;28;20502;-72
2023/06/04 23:54:42;;;;;;;2.80;1.47;;;12.20;83.60;;;;;;5068386;28;20169;-71
2023/06/04 23:57:08;;;;;;;3.63;1.20;;;12.10;83.70;;;;;;5071283;28;20419;-71
2023/06/04 23:59:33;;;;;;;3.10;1.40;;;12.10;83.60;;;;;;5057526;28;20449;-71
